createdAt,value
2022-11-29T00:04:15.221Z,12.427574
2022-11-29T00:09:16.992Z,13.008364
2022-11-29T00:14:18.717Z,13.244364
2022-11-29T00:19:20.387Z,12.350498
2022-11-29T00:24:21.868Z,12.240788
2022-11-29T00:29:23.381Z,12.761112
2022-11-29T00:34:25.112Z,13.36132
2022-11-29T00:39:26.984Z,13.57272
2022-11-29T00:44:28.924Z,12.869682
2022-11-29T00:49:30.584Z,13.06492
2022-11-29T00:54:32.414Z,13.04648
2022-11-29T00:59:34.205Z,12.361978
2022-11-29T01:04:36.314Z,12.427464
2022-11-29T01:09:38.265Z,12.27018
2022-11-29T01:14:40.121Z,12.753432
2022-11-29T01:19:46.422Z,13.22108
2022-11-29T01:24:51.120Z,12.271062
2022-11-29T01:29:52.708Z,12.446
2022-11-29T01:34:54.530Z,12.084996
2022-11-29T01:39:56.036Z,11.98271
2022-11-29T01:44:57.702Z,11.964174
2022-11-29T01:49:59.196Z,11.95534
2022-11-29T01:55:00.712Z,11.44005
2022-11-29T02:00:02.263Z,11.720112
2022-11-29T02:05:03.934Z,12.361096
2022-11-29T02:10:05.491Z,12.411412
2022-11-29T02:15:07.502Z,12.462324
2022-11-29T02:20:09.512Z,13.0109
2022-11-29T02:25:10.790Z,12.31713
2022-11-29T02:30:12.394Z,12.305216
2022-11-29T02:35:14.236Z,12.62881
2022-11-29T02:40:15.596Z,12.096572
2022-11-29T02:45:17.670Z,12.010948
2022-11-29T02:50:19.195Z,12.614588
2022-11-29T02:55:20.778Z,12.578398
2022-11-29T03:00:22.571Z,13.220102
2022-11-29T03:05:24.075Z,13.148766
2022-11-29T03:10:25.819Z,13.037388
2022-11-29T03:15:28.015Z,12.521298
2022-11-29T03:20:29.559Z,12.442744
2022-11-29T03:25:31.384Z,12.360104
2022-11-29T03:30:32.969Z,12.247058
2022-11-29T03:35:34.801Z,11.723544
2022-11-29T03:40:36.548Z,11.734686
2022-11-29T03:45:38.130Z,11.857096
2022-11-29T03:50:39.673Z,12.167622
2022-11-29T03:55:41.172Z,11.471206
2022-11-29T04:00:42.910Z,11.905582
2022-11-29T04:05:44.832Z,12.432962
2022-11-29T04:10:46.441Z,12.192442
2022-11-29T04:15:48.387Z,11.42663
2022-11-29T04:20:50.129Z,12.345654
2022-11-29T04:25:51.763Z,12.38377
2022-11-29T04:30:53.585Z,12.016254
2022-11-29T04:35:55.516Z,13.211106
2022-11-29T04:40:57.022Z,13.439888
2022-11-29T04:45:58.897Z,13.936288
2022-11-29T04:51:00.907Z,15.282022
2022-11-29T04:56:02.772Z,14.357052
2022-11-29T05:01:04.223Z,14.622134
2022-11-29T05:06:06.348Z,15.537916
2022-11-29T05:11:08.220Z,17.131796
2022-11-29T05:16:09.843Z,16.149088
2022-11-29T05:21:11.835Z,16.379472
2022-11-29T05:26:13.763Z,17.659394
2022-11-29T05:31:15.657Z,17.241342
2022-11-29T05:36:17.611Z,16.524856
2022-11-29T05:41:19.372Z,18.224172
2022-11-29T05:46:20.985Z,18.192202
2022-11-29T05:51:22.717Z,18.055652
2022-11-29T05:56:24.495Z,17.733904
2022-11-29T06:01:26.371Z,17.522924
2022-11-29T06:06:28.232Z,16.712604
2022-11-29T06:11:29.715Z,17.07574
2022-11-29T06:16:31.562Z,18.01284
2022-11-29T06:21:33.472Z,17.377988
2022-11-29T06:26:35.240Z,18.869256
2022-11-29T06:31:37.237Z,17.951926
2022-11-29T06:36:38.973Z,17.42027
2022-11-29T06:41:40.875Z,18.321968
2022-11-29T06:46:42.791Z,18.425504
2022-11-29T06:51:44.649Z,18.395678
2022-11-29T06:56:46.516Z,18.093606
2022-11-29T07:01:48.378Z,18.095736
2022-11-29T07:06:50.033Z,18.845522
2022-11-29T07:11:51.831Z,19.844582
2022-11-29T07:16:57.177Z,20.398248
2022-11-29T07:21:59.164Z,19.001776
2022-11-29T07:27:00.759Z,19.44755
2022-11-29T07:32:02.273Z,18.980146
2022-11-29T07:37:03.925Z,18.505238
2022-11-29T07:42:05.430Z,19.741942
2022-11-29T07:47:07.071Z,19.338464
2022-11-29T07:52:08.648Z,19.881152
2022-11-29T07:57:10.214Z,19.993074
2022-11-29T08:02:12.238Z,20.453354
2022-11-29T08:07:14.282Z,20.602972
2022-11-29T08:12:15.875Z,20.45121
2022-11-29T08:17:17.737Z,22.374644
2022-11-29T08:22:19.642Z,22.873598
2022-11-29T08:27:21.147Z,22.902976
2022-11-29T08:32:22.975Z,21.807042
2022-11-29T08:37:24.786Z,22.41633
2022-11-29T08:42:26.313Z,20.976814
2022-11-29T08:47:28.067Z,21.023412
2022-11-29T08:52:29.757Z,21.064216
2022-11-29T08:57:39.947Z,21.306338
2022-11-29T09:02:42.554Z,21.89405
2022-11-29T09:07:44.400Z,23.656998
2022-11-29T09:12:46.081Z,23.716392
2022-11-29T09:17:47.566Z,23.205266
2022-11-29T09:22:49.150Z,21.643732
2022-11-29T09:27:50.597Z,21.824004
2022-11-29T09:32:52.309Z,23.388198
2022-11-29T09:37:54.156Z,24.726472
2022-11-29T09:42:55.749Z,25.110832
2022-11-29T09:47:57.485Z,23.236558
2022-11-29T09:52:59.073Z,24.881152
2022-11-29T09:58:00.667Z,23.561658
2022-11-29T10:03:02.084Z,24.464484
2022-11-29T10:08:03.970Z,23.838152
2022-11-29T10:13:05.672Z,22.546734
2022-11-29T10:18:07.338Z,23.272748
2022-11-29T10:23:08.962Z,24.08421
2022-11-29T10:28:10.518Z,24.069446
2022-11-29T10:33:12.041Z,24.731276
2022-11-29T10:38:30.373Z,24.21441
2022-11-29T10:43:32.871Z,23.296386
2022-11-29T10:48:34.440Z,24.120834
2022-11-29T10:53:36.023Z,23.006404
2022-11-29T10:58:37.613Z,24.170024
2022-11-29T11:03:39.376Z,23.059122
2022-11-29T11:08:41.411Z,22.726368
2022-11-29T11:13:43.174Z,22.22447
2022-11-29T11:18:44.758Z,22.444772
2022-11-29T11:23:46.622Z,23.142344
2022-11-29T11:28:48.379Z,23.255528
2022-11-29T11:33:50.139Z,23.606818
2022-11-29T11:38:52.144Z,24.801702
2022-11-29T11:43:53.902Z,24.17229
2022-11-29T11:48:55.699Z,24.81401
2022-11-29T11:53:57.602Z,23.606424
2022-11-29T11:58:59.139Z,25.366632
2022-11-29T12:04:00.975Z,25.522886
2022-11-29T12:09:02.946Z,23.842468
2022-11-29T12:14:04.514Z,23.732228
2022-11-29T12:19:06.094Z,23.506918
2022-11-29T12:24:07.823Z,24.416366
2022-11-29T12:29:09.565Z,23.133076
2022-11-29T12:34:11.379Z,22.375228
2022-11-29T12:39:13.383Z,24.91068
2022-11-29T12:44:15.146Z,22.579966
2022-11-29T12:49:16.916Z,22.665658
2022-11-29T12:54:18.812Z,22.376802
2022-11-29T12:59:20.721Z,22.702486
2022-11-29T13:04:22.276Z,24.463602
2022-11-29T13:09:24.164Z,24.96831
2022-11-29T13:14:43.016Z,22.021686
2022-11-29T13:19:45.186Z,22.817298
2022-11-29T13:24:47.314Z,23.75744
2022-11-29T13:29:49.428Z,23.75915
2022-11-29T13:34:51.504Z,24.727748
2022-11-29T13:39:53.667Z,25.845544
2022-11-29T13:44:55.539Z,25.06654
2022-11-29T13:49:57.426Z,24.550312
2022-11-29T13:54:59.426Z,24.872726
2022-11-29T14:00:01.376Z,25.460846
2022-11-29T14:05:03.195Z,25.044776
2022-11-29T14:10:05.406Z,24.696172
2022-11-29T14:15:07.248Z,23.291922
2022-11-29T14:20:09.019Z,24.54654
2022-11-29T14:25:42.886Z,26.118728
2022-11-29T14:30:53.876Z,24.125502
2022-11-29T14:35:57.422Z,24.137864
2022-11-29T14:41:01.702Z,24.37042
2022-11-29T14:46:05.319Z,24.144676
2022-11-29T14:51:08.858Z,23.835018
2022-11-29T14:56:12.291Z,24.18681
2022-11-29T15:01:15.843Z,23.843648
2022-11-29T15:06:19.164Z,22.911946
2022-11-29T15:11:22.934Z,24.3126
2022-11-29T15:16:26.277Z,23.436452
2022-11-29T15:21:29.611Z,23.345128
2022-11-29T15:26:32.685Z,23.876514
2022-11-29T15:31:36.099Z,22.984516
2022-11-29T15:36:39.511Z,23.175196
2022-11-29T15:41:43.655Z,23.305356
2022-11-29T15:46:46.903Z,23.037492
2022-11-29T15:51:49.962Z,22.625682
2022-11-29T15:56:53.351Z,22.583996
2022-11-29T16:01:56.797Z,21.956172
2022-11-29T16:07:00.496Z,22.16532
2022-11-29T16:12:04.901Z,22.257132
2022-11-29T16:17:08.199Z,22.264636
2022-11-29T16:22:11.731Z,21.624884
2022-11-29T16:27:15.408Z,21.354578
2022-11-29T16:32:20.283Z,21.217498
2022-11-29T16:37:24.228Z,21.53333
2022-11-29T16:42:28.628Z,20.888666
2022-11-29T16:47:32.182Z,20.51861
2022-11-29T16:52:35.561Z,21.061936
2022-11-29T16:57:39.371Z,20.290234
2022-11-29T17:02:44.808Z,20.332422
2022-11-29T17:07:48.391Z,20.031842
2022-11-29T17:12:57.741Z,19.9758
2022-11-29T17:18:01.355Z,19.363622
2022-11-29T17:23:04.678Z,19.40007
2022-11-29T17:28:08.225Z,19.38517
2022-11-29T17:33:11.476Z,19.041426
2022-11-29T17:38:15.945Z,19.42497
2022-11-29T17:43:20.235Z,19.154854
2022-11-29T17:48:23.543Z,19.34552
2022-11-29T17:53:26.715Z,19.625786
2022-11-29T17:58:30.169Z,19.484554
2022-11-29T18:03:33.316Z,18.84483
2022-11-29T18:08:41.488Z,18.664572
2022-11-29T18:13:45.959Z,18.763182
2022-11-29T18:18:52.981Z,18.431976
2022-11-29T18:23:58.401Z,18.42359
2022-11-29T18:29:03.703Z,18.697234
2022-11-29T18:34:09.008Z,18.635886
2022-11-29T18:39:12.521Z,17.829596
2022-11-29T18:44:21.920Z,18.118614
2022-11-29T18:49:25.502Z,17.68968
2022-11-29T18:54:28.881Z,17.871444
2022-11-29T18:59:32.591Z,17.46186
2022-11-29T19:04:35.923Z,18.627934
2022-11-29T19:09:39.277Z,18.483608
2022-11-29T19:14:49.473Z,18.495156
2022-11-29T19:19:53.163Z,17.557024
2022-11-29T19:25:02.031Z,17.541392
2022-11-29T19:30:05.677Z,17.291318
2022-11-29T19:35:08.506Z,17.578898
2022-11-29T19:40:12.131Z,17.743714
2022-11-29T19:45:17.436Z,17.303938
2022-11-29T19:50:22.207Z,17.914338
2022-11-29T19:55:24.300Z,17.58932
2022-11-29T20:00:26.783Z,17.7023
2022-11-29T20:05:29.854Z,17.61156
2022-11-29T20:10:32.633Z,18.105886
2022-11-29T20:15:36.200Z,17.665852
2022-11-29T20:20:39.190Z,17.412956
2022-11-29T20:25:42.455Z,17.508282
2022-11-29T20:30:45.261Z,17.540062
2022-11-29T20:35:48.266Z,17.404394
2022-11-29T20:40:51.323Z,17.942576
2022-11-29T20:45:54.387Z,17.623556
2022-11-29T20:50:57.164Z,17.216808
2022-11-29T20:55:59.566Z,17.54606
2022-11-29T21:01:01.565Z,17.277274
2022-11-29T21:06:03.494Z,16.761332
2022-11-29T21:11:05.286Z,16.733352
2022-11-29T21:16:07.370Z,16.91342
2022-11-29T21:21:08.980Z,15.588054
2022-11-29T21:26:10.470Z,15.680816
2022-11-29T21:31:12.009Z,16.894532
2022-11-29T21:36:13.719Z,16.480022
2022-11-29T21:41:15.307Z,16.204084
2022-11-29T21:46:17.339Z,16.715698
2022-11-29T21:51:18.854Z,15.919938
2022-11-29T21:56:20.464Z,16.658502
2022-11-29T22:01:22.493Z,16.206826
2022-11-29T22:06:24.464Z,15.92595
2022-11-29T22:11:26.088Z,15.874046
2022-11-29T22:16:27.907Z,16.682236
2022-11-29T22:21:29.803Z,16.171952
2022-11-29T22:26:31.298Z,15.934946
2022-11-29T22:31:32.833Z,15.110256
2022-11-29T22:36:34.543Z,15.960186
2022-11-29T22:41:36.019Z,15.82867
2022-11-29T22:46:37.868Z,16.139114
2022-11-29T22:51:39.866Z,15.748352
2022-11-29T22:56:41.344Z,15.038664
2022-11-29T23:01:42.970Z,15.4884
2022-11-29T23:06:44.756Z,15.518498
2022-11-29T23:11:46.338Z,15.669702
2022-11-29T23:16:48.206Z,15.995236
2022-11-29T23:21:49.708Z,15.552394
2022-11-29T23:26:51.264Z,15.062668
2022-11-29T23:31:53.045Z,15.136636
2022-11-29T23:36:54.597Z,15.342486
2022-11-29T23:41:56.380Z,15.445588
2022-11-29T23:46:58.384Z,14.673236
2022-11-29T23:52:00.200Z,14.97467
2022-11-29T23:57:02.010Z,14.898314
